createdAt,value
2019-01-04T00:00:38.349Z,22.73
2019-01-04T00:05:59.331Z,21.96
2019-01-04T00:11:00.434Z,22.09
2019-01-04T00:16:01.403Z,21.00
2019-01-04T00:20:49.702Z,21.29
2019-01-04T00:26:09.845Z,21.81
2019-01-04T00:30:58.055Z,20.37
2019-01-04T00:36:18.060Z,20.34
2019-01-04T00:41:06.255Z,20.78
2019-01-04T00:46:27.226Z,21.61
2019-01-04T00:51:15.381Z,20.75
2019-01-04T00:56:23.604Z,21.07
2019-01-04T01:01:43.839Z,19.14
2019-01-04T01:06:44.841Z,17.29
2019-01-04T01:11:32.135Z,18.32
2019-01-04T01:16:39.290Z,17.45
2019-01-04T01:22:00.453Z,16.77
2019-01-04T01:26:48.695Z,17.02
2019-01-04T01:31:55.890Z,19.18
2019-01-04T01:37:03.960Z,19.15
2019-01-04T01:42:25.201Z,16.65
2019-01-04T01:47:25.184Z,17.84
2019-01-04T01:52:13.866Z,16.54
2019-01-04T01:57:21.104Z,16.09
2019-01-04T02:02:28.318Z,16.72
2019-01-04T02:07:49.283Z,16.78
2019-01-04T02:12:37.430Z,16.95
2019-01-04T02:17:45.557Z,16.82
2019-01-04T02:22:53.796Z,16.69
2019-01-04T02:28:02.011Z,18.04
2019-01-04T02:33:09.293Z,17.59
2019-01-04T02:38:30.257Z,17.44
2019-01-04T02:43:20.357Z,17.09
2019-01-04T02:48:27.631Z,18.06
2019-01-04T02:53:35.770Z,19.03
2019-01-04T02:58:55.833Z,19.19
2019-01-04T03:03:55.884Z,20.56
2019-01-04T03:08:43.979Z,20.03
2019-01-04T03:13:54.352Z,20.45
2019-01-04T03:18:52.566Z,21.21
2019-01-04T03:23:59.842Z,22.33
2019-01-04T03:29:19.984Z,21.17
2019-01-04T03:34:20.061Z,21.16
2019-01-04T03:39:08.172Z,21.66
2019-01-04T03:44:16.384Z,22.71
2019-01-04T03:49:37.372Z,23.34
2019-01-04T03:54:25.660Z,23.94
2019-01-04T03:59:33.737Z,24.15
2019-01-04T04:04:41.054Z,24.89
2019-01-04T04:10:01.181Z,24.79
2019-01-04T04:14:49.287Z,25.02
2019-01-04T04:20:10.402Z,24.68
2019-01-04T04:24:57.775Z,23.25
2019-01-04T04:30:17.778Z,24.40
2019-01-04T04:35:10.042Z,25.13
2019-01-04T04:40:21.183Z,24.70
2019-01-04T04:45:08.470Z,24.59
2019-01-04T04:52:27.164Z,32.64
2019-01-04T04:57:48.139Z,27.12
2019-01-04T05:02:36.341Z,25.77
2019-01-04T05:07:57.338Z,25.48
2019-01-04T05:12:44.389Z,24.83
2019-01-04T05:17:52.564Z,27.31
2019-01-04T05:23:00.783Z,27.78
2019-01-04T05:28:21.783Z,29.05
2019-01-04T05:33:08.981Z,27.93
2019-01-04T05:38:17.218Z,27.74
2019-01-04T05:43:24.306Z,27.59
2019-01-04T05:48:32.559Z,26.00
2019-01-04T05:53:53.667Z,25.90
2019-01-04T05:58:40.830Z,27.76
2019-01-04T06:03:48.937Z,28.88
2019-01-04T06:09:10.130Z,27.55
2019-01-04T06:13:58.236Z,27.78
2019-01-04T06:19:06.506Z,27.81
2019-01-04T06:24:13.611Z,26.52
2019-01-04T06:29:24.096Z,27.93
2019-01-04T06:34:31.348Z,27.63
2019-01-04T06:39:38.604Z,27.46
2019-01-04T06:44:46.756Z,26.50
2019-01-04T06:50:08.061Z,27.21
2019-01-04T06:55:09.030Z,26.50
2019-01-04T06:59:56.238Z,26.26
2019-01-04T07:05:04.570Z,25.32
2019-01-04T07:10:24.863Z,26.09
2019-01-04T07:15:25.025Z,26.83
2019-01-04T07:20:13.093Z,26.87
2019-01-04T07:25:34.104Z,27.14
2019-01-04T07:30:22.704Z,26.30
2019-01-04T07:35:29.927Z,26.18
2019-01-04T07:40:50.167Z,26.93
2019-01-04T07:45:37.396Z,26.19
2019-01-04T07:50:57.706Z,26.95
2019-01-04T07:55:57.692Z,26.12
2019-01-04T08:00:58.976Z,26.59
2019-01-04T08:05:46.224Z,26.90
2019-01-04T08:11:06.558Z,24.57
2019-01-04T08:15:53.649Z,25.40
2019-01-04T08:21:02.064Z,25.31
2019-01-04T08:26:09.134Z,25.15
2019-01-04T08:31:17.449Z,24.90
2019-01-04T08:36:25.688Z,24.62
2019-01-04T08:41:33.049Z,26.92
2019-01-04T08:46:54.190Z,24.98
2019-01-04T08:51:55.358Z,25.71
2019-01-04T08:56:43.584Z,26.08
2019-01-04T09:02:04.643Z,26.13
2019-01-04T09:07:05.745Z,25.74
2019-01-04T09:12:05.967Z,27.59
2019-01-04T09:17:05.951Z,25.41
2019-01-04T09:21:54.144Z,27.48
2019-01-04T09:27:15.222Z,26.14
2019-01-04T09:32:02.661Z,26.68
2019-01-04T09:42:14.056Z,25.14
2019-01-04T09:47:22.137Z,24.19
2019-01-04T09:52:30.334Z,25.12
2019-01-04T09:57:51.451Z,24.42
2019-01-04T10:02:52.679Z,24.03
2019-01-04T10:07:39.820Z,25.14
2019-01-04T10:12:48.054Z,23.56
2019-01-04T10:17:56.309Z,23.99
2019-01-04T10:23:03.738Z,23.71
2019-01-04T10:28:10.992Z,23.67
2019-01-04T10:33:31.983Z,22.59
2019-01-04T10:38:33.092Z,23.20
2019-01-04T10:43:20.312Z,23.07
2019-01-04T10:48:41.423Z,24.31
2019-01-04T10:53:28.793Z,23.23
2019-01-04T10:58:35.903Z,22.67
2019-01-04T11:03:44.137Z,23.72
2019-01-04T11:08:52.351Z,24.78
2019-01-04T11:14:00.695Z,22.96
2019-01-04T11:19:07.812Z,23.66
2019-01-04T11:24:29.002Z,23.51
2019-01-04T11:29:17.106Z,22.15
2019-01-04T11:34:25.342Z,23.03
2019-01-04T11:39:33.437Z,20.88
2019-01-04T11:44:54.480Z,20.86
2019-01-04T11:50:48.325Z,27.24
2019-01-04T11:55:56.743Z,21.76
2019-01-04T12:01:16.768Z,21.86
2019-01-04T12:06:05.019Z,21.41
2019-01-04T12:11:13.144Z,21.21
2019-01-04T12:16:21.573Z,22.03
2019-01-04T12:21:29.634Z,21.09
2019-01-04T12:26:37.189Z,21.21
2019-01-04T12:31:45.284Z,21.47
2019-01-04T12:36:53.682Z,21.89
2019-01-04T12:42:14.632Z,22.51
2019-01-04T12:47:02.943Z,21.73
2019-01-04T12:52:11.163Z,21.21
2019-01-04T12:57:31.269Z,20.72
2019-01-04T13:02:19.481Z,22.02
2019-01-04T13:07:39.778Z,21.54
2019-01-04T13:12:27.016Z,21.33
2019-01-04T13:17:47.328Z,20.80
2019-01-04T13:22:35.546Z,22.59
2019-01-04T13:27:42.759Z,21.18
2019-01-04T13:33:03.885Z,22.61
2019-01-04T13:37:51.298Z,23.21
2019-01-04T13:42:58.519Z,22.66
2019-01-04T13:48:19.776Z,22.58
2019-01-04T13:53:07.884Z,22.70
2019-01-04T13:58:16.059Z,21.64
2019-01-04T14:03:24.122Z,20.55
2019-01-04T14:08:45.253Z,21.12
2019-01-04T14:13:46.386Z,21.16
2019-01-04T14:18:46.558Z,21.16
2019-01-04T14:23:33.803Z,21.53
2019-01-04T14:28:54.158Z,22.08
2019-01-04T14:33:54.148Z,19.92
2019-01-04T14:38:55.511Z,20.33
2019-01-04T14:43:44.742Z,21.39
2019-01-04T14:48:43.075Z,20.63
2019-01-04T14:53:51.299Z,20.65
2019-01-04T14:59:11.590Z,20.74
2019-01-04T15:04:11.730Z,20.89
2019-01-04T15:08:59.170Z,21.63
2019-01-04T15:14:20.152Z,20.53
2019-01-04T15:19:07.364Z,22.25
2019-01-04T15:24:15.602Z,22.50
2019-01-04T15:29:23.310Z,24.24
2019-01-04T15:34:31.309Z,23.45
2019-01-04T15:39:39.490Z,21.86
2019-01-04T15:44:47.558Z,21.55
2019-01-04T15:49:56.003Z,21.54
2019-01-04T15:55:16.130Z,21.32
2019-01-04T16:00:03.475Z,20.39
2019-01-04T16:05:10.588Z,20.78
2019-01-04T16:10:31.822Z,20.25
2019-01-04T16:15:31.974Z,21.41
2019-01-04T16:20:32.157Z,21.00
2019-01-04T16:25:32.096Z,20.46
2019-01-04T16:30:33.554Z,19.73
2019-01-04T16:35:21.738Z,21.29
2019-01-04T16:40:29.131Z,19.75
2019-01-04T16:45:49.110Z,20.09
2019-01-04T16:50:37.483Z,20.85
2019-01-04T16:55:58.611Z,20.86
2019-01-04T17:00:58.727Z,20.65
2019-01-04T17:05:59.867Z,20.88
2019-01-04T17:11:00.052Z,20.72
2019-01-04T17:21:02.176Z,19.78
2019-01-04T17:26:02.159Z,20.52
2019-01-04T17:30:50.361Z,19.67
2019-01-04T17:35:58.404Z,19.95
2019-01-04T17:46:26.916Z,20.39
2019-01-04T17:51:14.369Z,20.45
2019-01-04T17:56:21.474Z,20.17
2019-01-04T18:01:29.644Z,21.17
2019-01-04T18:06:37.747Z,20.89
2019-01-04T18:11:46.034Z,19.71
2019-01-04T18:17:07.128Z,21.20
2019-01-04T18:22:07.301Z,21.14
2019-01-04T18:27:07.336Z,21.31
2019-01-04T18:31:55.541Z,21.45
2019-01-04T18:37:16.645Z,21.25
2019-01-04T18:42:17.579Z,21.93
2019-01-04T18:47:18.672Z,21.82
2019-01-04T18:52:19.781Z,21.74
2019-01-04T18:57:07.023Z,21.91
2019-01-04T19:02:15.359Z,21.98
2019-01-04T19:07:23.433Z,22.30
2019-01-04T19:12:44.642Z,21.82
2019-01-04T19:17:45.754Z,21.95
2019-01-04T19:22:46.066Z,24.67
2019-01-04T19:27:33.210Z,23.40
2019-01-04T19:32:54.480Z,23.53
2019-01-04T19:37:42.536Z,23.73
2019-01-04T19:42:50.932Z,23.20
2019-01-04T19:48:11.044Z,22.82
2019-01-04T19:53:11.124Z,23.85
2019-01-04T19:57:59.216Z,23.74
2019-01-04T20:03:07.521Z,24.54
2019-01-04T20:08:15.725Z,24.32
2019-01-04T20:13:22.896Z,23.58
2019-01-04T20:18:30.982Z,24.13
2019-01-04T20:23:39.396Z,24.42
2019-01-04T20:28:47.452Z,24.41
2019-01-04T20:33:55.660Z,24.28
2019-01-04T20:39:06.855Z,23.61
2019-01-04T20:44:05.028Z,23.20
2019-01-04T20:49:13.103Z,25.53
2019-01-04T20:54:34.398Z,24.98
2019-01-04T20:59:21.678Z,25.48
2019-01-04T21:04:29.021Z,25.42
2019-01-04T21:09:51.861Z,25.33
2019-01-04T21:14:49.545Z,25.72
2019-01-04T21:19:36.665Z,24.32
2019-01-04T21:24:58.135Z,25.61
2019-01-04T21:29:58.198Z,25.33
2019-01-04T21:34:46.561Z,25.82
2019-01-04T21:39:54.712Z,24.81
2019-01-04T21:45:16.098Z,25.29
2019-01-04T21:50:16.255Z,28.08
2019-01-04T21:55:16.433Z,26.82
2019-01-04T22:00:17.410Z,26.03
2019-01-04T22:05:18.595Z,27.70
2019-01-04T22:10:19.470Z,27.24
2019-01-04T22:15:20.782Z,26.98
2019-01-04T22:20:09.171Z,26.58
2019-01-04T22:25:16.487Z,28.09
2019-01-04T22:30:24.635Z,26.33
2019-01-04T22:35:32.872Z,27.50
2019-01-04T22:40:53.976Z,26.34
2019-01-04T22:50:44.837Z,25.88
2019-01-04T22:56:07.427Z,25.97
2019-01-04T23:01:08.507Z,25.43
2019-01-04T23:11:17.337Z,28.15
2019-01-04T23:16:07.788Z,27.07
2019-01-04T23:21:17.976Z,27.12
2019-01-04T23:26:19.568Z,26.84
2019-01-04T23:31:18.291Z,26.28
2019-01-04T23:36:18.364Z,27.16
2019-01-04T23:41:19.477Z,27.31
2019-01-04T23:46:20.908Z,28.05
2019-01-04T23:52:14.625Z,32.51
2019-01-04T23:57:22.922Z,26.99
